sensor_id;sensor_type;location;lat;lon;timestamp;P1;durP1;ratioP1;P2;durP2;ratioP2
21581;SDS011;10952;50.836;4.348;2023-11-22T00:00:10;30.03;;;16.97;;
21581;SDS011;10952;50.836;4.348;2023-11-22T00:02:38;27.03;;;16.93;;
21581;SDS011;10952;50.836;4.348;2023-11-22T00:05:04;30.67;;;16.20;;
21581;SDS011;10952;50.836;4.348;2023-11-22T00:07:33;31.47;;;17.30;;
21581;SDS011;10952;50.836;4.348;2023-11-22T00:09:59;35.07;;;17.47;;
21581;SDS011;10952;50.836;4.348;2023-11-22T00:12:26;29.63;;;17.03;;
21581;SDS011;10952;50.836;4.348;2023-11-22T00:14:52;27.23;;;16.43;;
21581;SDS011;10952;50.836;4.348;2023-11-22T00:17:19;28.33;;;16.50;;
21581;SDS011;10952;50.836;4.348;2023-11-22T00:19:44;33.13;;;17.63;;
21581;SDS011;10952;50.836;4.348;2023-11-22T00:22:11;32.23;;;16.87;;
21581;SDS011;10952;50.836;4.348;2023-11-22T00:24:40;33.70;;;17.00;;
21581;SDS011;10952;50.836;4.348;2023-11-22T00:27:06;31.80;;;18.03;;
21581;SDS011;10952;50.836;4.348;2023-11-22T00:29:32;33.37;;;19.17;;
21581;SDS011;10952;50.836;4.348;2023-11-22T00:31:58;37.17;;;20.33;;
21581;SDS011;10952;50.836;4.348;2023-11-22T00:34:25;28.57;;;17.30;;
21581;SDS011;10952;50.836;4.348;2023-11-22T00:36:51;29.40;;;17.63;;
21581;SDS011;10952;50.836;4.348;2023-11-22T00:39:17;31.77;;;18.27;;
21581;SDS011;10952;50.836;4.348;2023-11-22T00:41:43;33.37;;;17.63;;
21581;SDS011;10952;50.836;4.348;2023-11-22T00:44:10;30.17;;;17.23;;
21581;SDS011;10952;50.836;4.348;2023-11-22T00:46:36;30.07;;;16.20;;
21581;SDS011;10952;50.836;4.348;2023-11-22T00:49:05;31.93;;;18.43;;
21581;SDS011;10952;50.836;4.348;2023-11-22T00:51:31;30.03;;;17.53;;
21581;SDS011;10952;50.836;4.348;2023-11-22T00:53:58;32.53;;;17.43;;
21581;SDS011;10952;50.836;4.348;2023-11-22T00:56:24;31.47;;;17.07;;
21581;SDS011;10952;50.836;4.348;2023-11-22T00:58:50;31.03;;;18.00;;
21581;SDS011;10952;50.836;4.348;2023-11-22T01:01:16;31.50;;;17.57;;
21581;SDS011;10952;50.836;4.348;2023-11-22T01:03:43;28.83;;;16.90;;
21581;SDS011;10952;50.836;4.348;2023-11-22T01:06:09;33.53;;;17.47;;
21581;SDS011;10952;50.836;4.348;2023-11-22T01:08:35;37.23;;;18.73;;
21581;SDS011;10952;50.836;4.348;2023-11-22T01:11:02;29.07;;;17.47;;
21581;SDS011;10952;50.836;4.348;2023-11-22T01:13:28;33.40;;;17.67;;
21581;SDS011;10952;50.836;4.348;2023-11-22T01:15:54;28.47;;;16.97;;
21581;SDS011;10952;50.836;4.348;2023-11-22T01:18:20;33.60;;;18.43;;
21581;SDS011;10952;50.836;4.348;2023-11-22T01:20:46;31.87;;;18.73;;
21581;SDS011;10952;50.836;4.348;2023-11-22T01:23:11;30.57;;;18.57;;
21581;SDS011;10952;50.836;4.348;2023-11-22T01:25:37;32.37;;;18.00;;
21581;SDS011;10952;50.836;4.348;2023-11-22T01:28:03;31.17;;;19.00;;
21581;SDS011;10952;50.836;4.348;2023-11-22T01:30:29;33.17;;;17.53;;
21581;SDS011;10952;50.836;4.348;2023-11-22T01:32:54;32.47;;;18.33;;
21581;SDS011;10952;50.836;4.348;2023-11-22T01:35:20;33.80;;;17.27;;
21581;SDS011;10952;50.836;4.348;2023-11-22T01:37:46;34.97;;;17.83;;
21581;SDS011;10952;50.836;4.348;2023-11-22T01:40:12;34.03;;;18.73;;
21581;SDS011;10952;50.836;4.348;2023-11-22T01:42:38;32.73;;;18.23;;
21581;SDS011;10952;50.836;4.348;2023-11-22T01:45:06;33.07;;;17.60;;
21581;SDS011;10952;50.836;4.348;2023-11-22T01:47:32;33.57;;;18.07;;
21581;SDS011;10952;50.836;4.348;2023-11-22T01:49:59;31.57;;;18.33;;
21581;SDS011;10952;50.836;4.348;2023-11-22T01:52:25;27.93;;;16.77;;
21581;SDS011;10952;50.836;4.348;2023-11-22T01:54:51;30.30;;;17.13;;
21581;SDS011;10952;50.836;4.348;2023-11-22T01:57:17;34.47;;;17.47;;
21581;SDS011;10952;50.836;4.348;2023-11-22T01:59:45;27.80;;;16.83;;
21581;SDS011;10952;50.836;4.348;2023-11-22T02:02:12;31.50;;;17.80;;
21581;SDS011;10952;50.836;4.348;2023-11-22T02:04:38;32.07;;;18.03;;
21581;SDS011;10952;50.836;4.348;2023-11-22T02:07:04;31.63;;;17.57;;
21581;SDS011;10952;50.836;4.348;2023-11-22T02:09:30;32.13;;;17.20;;
21581;SDS011;10952;50.836;4.348;2023-11-22T02:11:55;35.07;;;19.73;;
21581;SDS011;10952;50.836;4.348;2023-11-22T02:14:22;32.40;;;18.13;;
21581;SDS011;10952;50.836;4.348;2023-11-22T02:16:48;36.43;;;20.47;;
21581;SDS011;10952;50.836;4.348;2023-11-22T02:19:15;35.03;;;19.10;;
21581;SDS011;10952;50.836;4.348;2023-11-22T02:21:42;32.77;;;19.10;;
21581;SDS011;10952;50.836;4.348;2023-11-22T02:24:08;33.33;;;18.47;;
21581;SDS011;10952;50.836;4.348;2023-11-22T02:26:35;36.50;;;19.67;;
21581;SDS011;10952;50.836;4.348;2023-11-22T02:29:02;36.07;;;19.37;;
21581;SDS011;10952;50.836;4.348;2023-11-22T02:31:31;34.37;;;19.40;;
21581;SDS011;10952;50.836;4.348;2023-11-22T02:33:56;40.30;;;20.20;;
21581;SDS011;10952;50.836;4.348;2023-11-22T02:36:22;36.70;;;20.00;;
21581;SDS011;10952;50.836;4.348;2023-11-22T02:38:47;34.70;;;20.03;;
21581;SDS011;10952;50.836;4.348;2023-11-22T02:41:13;36.27;;;19.77;;
21581;SDS011;10952;50.836;4.348;2023-11-22T02:43:39;38.63;;;19.27;;
21581;SDS011;10952;50.836;4.348;2023-11-22T02:46:06;39.43;;;20.87;;
21581;SDS011;10952;50.836;4.348;2023-11-22T02:48:33;35.83;;;19.80;;
21581;SDS011;10952;50.836;4.348;2023-11-22T02:50:59;35.70;;;18.87;;
21581;SDS011;10952;50.836;4.348;2023-11-22T02:53:25;34.47;;;19.13;;
21581;SDS011;10952;50.836;4.348;2023-11-22T02:55:52;35.77;;;20.50;;
21581;SDS011;10952;50.836;4.348;2023-11-22T02:58:20;35.03;;;19.30;;
21581;SDS011;10952;50.836;4.348;2023-11-22T03:00:46;36.90;;;18.83;;
21581;SDS011;10952;50.836;4.348;2023-11-22T03:03:13;34.50;;;19.67;;
21581;SDS011;10952;50.836;4.348;2023-11-22T03:05:38;35.47;;;19.77;;
21581;SDS011;10952;50.836;4.348;2023-11-22T03:08:05;39.67;;;20.03;;
21581;SDS011;10952;50.836;4.348;2023-11-22T03:10:32;43.47;;;22.63;;
21581;SDS011;10952;50.836;4.348;2023-11-22T03:12:58;35.40;;;19.13;;
21581;SDS011;10952;50.836;4.348;2023-11-22T03:15:24;35.47;;;19.60;;
21581;SDS011;10952;50.836;4.348;2023-11-22T03:17:49;37.20;;;20.00;;
21581;SDS011;10952;50.836;4.348;2023-11-22T03:20:15;38.10;;;20.67;;
21581;SDS011;10952;50.836;4.348;2023-11-22T03:22:41;42.30;;;20.30;;
21581;SDS011;10952;50.836;4.348;2023-11-22T03:25:09;36.43;;;20.27;;
21581;SDS011;10952;50.836;4.348;2023-11-22T03:27:36;34.93;;;18.70;;
21581;SDS011;10952;50.836;4.348;2023-11-22T03:30:03;32.80;;;18.80;;
21581;SDS011;10952;50.836;4.348;2023-11-22T03:32:29;35.50;;;20.67;;
21581;SDS011;10952;50.836;4.348;2023-11-22T03:34:55;31.77;;;19.30;;
21581;SDS011;10952;50.836;4.348;2023-11-22T03:37:22;37.13;;;18.77;;
21581;SDS011;10952;50.836;4.348;2023-11-22T03:39:48;33.07;;;18.97;;
21581;SDS011;10952;50.836;4.348;2023-11-22T03:42:16;35.20;;;19.37;;
21581;SDS011;10952;50.836;4.348;2023-11-22T03:44:42;30.50;;;17.23;;
21581;SDS011;10952;50.836;4.348;2023-11-22T03:47:10;36.73;;;18.63;;
21581;SDS011;10952;50.836;4.348;2023-11-22T03:49:38;36.00;;;18.83;;
21581;SDS011;10952;50.836;4.348;2023-11-22T03:52:04;35.47;;;18.87;;
21581;SDS011;10952;50.836;4.348;2023-11-22T03:54:31;32.80;;;17.07;;
21581;SDS011;10952;50.836;4.348;2023-11-22T03:56:57;31.93;;;17.43;;
21581;SDS011;10952;50.836;4.348;2023-11-22T03:59:23;33.80;;;18.43;;
21581;SDS011;10952;50.836;4.348;2023-11-22T04:01:49;30.77;;;18.10;;
21581;SDS011;10952;50.836;4.348;2023-11-22T04:04:16;34.57;;;18.77;;
21581;SDS011;10952;50.836;4.348;2023-11-22T04:06:41;34.00;;;18.43;;
21581;SDS011;10952;50.836;4.348;2023-11-22T04:09:07;34.70;;;18.20;;
21581;SDS011;10952;50.836;4.348;2023-11-22T04:11:39;31.20;;;18.87;;
21581;SDS011;10952;50.836;4.348;2023-11-22T04:14:05;35.77;;;18.17;;
21581;SDS011;10952;50.836;4.348;2023-11-22T04:16:31;32.23;;;17.97;;
21581;SDS011;10952;50.836;4.348;2023-11-22T04:18:57;32.50;;;16.83;;
21581;SDS011;10952;50.836;4.348;2023-11-22T04:21:23;31.87;;;17.70;;
21581;SDS011;10952;50.836;4.348;2023-11-22T04:23:49;35.30;;;18.57;;
21581;SDS011;10952;50.836;4.348;2023-11-22T04:26:15;35.87;;;18.73;;
21581;SDS011;10952;50.836;4.348;2023-11-22T04:28:41;31.07;;;17.10;;
21581;SDS011;10952;50.836;4.348;2023-11-22T04:31:07;31.13;;;17.97;;
21581;SDS011;10952;50.836;4.348;2023-11-22T04:33:35;33.73;;;18.20;;
21581;SDS011;10952;50.836;4.348;2023-11-22T04:36:02;40.23;;;18.83;;
21581;SDS011;10952;50.836;4.348;2023-11-22T04:38:28;37.43;;;19.57;;
21581;SDS011;10952;50.836;4.348;2023-11-22T04:40:54;35.37;;;19.93;;
21581;SDS011;10952;50.836;4.348;2023-11-22T04:43:20;36.20;;;19.07;;
21581;SDS011;10952;50.836;4.348;2023-11-22T04:45:46;33.23;;;18.37;;
21581;SDS011;10952;50.836;4.348;2023-11-22T04:48:11;35.83;;;18.70;;
21581;SDS011;10952;50.836;4.348;2023-11-22T04:50:40;34.00;;;18.23;;
21581;SDS011;10952;50.836;4.348;2023-11-22T04:53:06;36.13;;;19.40;;
21581;SDS011;10952;50.836;4.348;2023-11-22T04:55:31;37.50;;;20.17;;
21581;SDS011;10952;50.836;4.348;2023-11-22T04:57:57;43.40;;;21.93;;
21581;SDS011;10952;50.836;4.348;2023-11-22T05:00:23;38.47;;;20.30;;
21581;SDS011;10952;50.836;4.348;2023-11-22T05:02:49;35.10;;;18.30;;
21581;SDS011;10952;50.836;4.348;2023-11-22T05:05:15;40.10;;;19.63;;
21581;SDS011;10952;50.836;4.348;2023-11-22T05:07:41;40.27;;;21.23;;
21581;SDS011;10952;50.836;4.348;2023-11-22T05:10:07;38.77;;;21.03;;
21581;SDS011;10952;50.836;4.348;2023-11-22T05:12:35;36.67;;;20.00;;
21581;SDS011;10952;50.836;4.348;2023-11-22T05:15:01;40.03;;;20.83;;
21581;SDS011;10952;50.836;4.348;2023-11-22T05:17:27;39.50;;;20.83;;
21581;SDS011;10952;50.836;4.348;2023-11-22T05:19:53;34.50;;;19.53;;
21581;SDS011;10952;50.836;4.348;2023-11-22T05:22:19;37.97;;;20.17;;
21581;SDS011;10952;50.836;4.348;2023-11-22T05:24:45;38.97;;;20.77;;
21581;SDS011;10952;50.836;4.348;2023-11-22T05:27:10;33.53;;;19.20;;
21581;SDS011;10952;50.836;4.348;2023-11-22T05:29:36;40.53;;;20.97;;
21581;SDS011;10952;50.836;4.348;2023-11-22T05:32:03;39.87;;;20.17;;
21581;SDS011;10952;50.836;4.348;2023-11-22T05:34:29;37.07;;;20.07;;
21581;SDS011;10952;50.836;4.348;2023-11-22T05:36:55;37.83;;;19.80;;
21581;SDS011;10952;50.836;4.348;2023-11-22T05:39:20;36.87;;;19.43;;
21581;SDS011;10952;50.836;4.348;2023-11-22T05:41:52;33.70;;;18.47;;
21581;SDS011;10952;50.836;4.348;2023-11-22T05:44:18;33.67;;;17.70;;
21581;SDS011;10952;50.836;4.348;2023-11-22T05:46:44;34.40;;;18.47;;
21581;SDS011;10952;50.836;4.348;2023-11-22T05:49:10;37.83;;;19.57;;
21581;SDS011;10952;50.836;4.348;2023-11-22T05:51:35;40.30;;;18.93;;
21581;SDS011;10952;50.836;4.348;2023-11-22T05:54:02;38.17;;;20.00;;
21581;SDS011;10952;50.836;4.348;2023-11-22T05:56:28;34.17;;;18.47;;
21581;SDS011;10952;50.836;4.348;2023-11-22T05:58:54;33.73;;;18.73;;
21581;SDS011;10952;50.836;4.348;2023-11-22T06:01:19;55.50;;;29.03;;
21581;SDS011;10952;50.836;4.348;2023-11-22T06:03:45;45.67;;;21.73;;
21581;SDS011;10952;50.836;4.348;2023-11-22T06:06:11;38.00;;;19.47;;
21581;SDS011;10952;50.836;4.348;2023-11-22T06:08:38;35.10;;;18.10;;
21581;SDS011;10952;50.836;4.348;2023-11-22T06:11:04;33.47;;;18.27;;
21581;SDS011;10952;50.836;4.348;2023-11-22T06:13:30;33.93;;;19.20;;
21581;SDS011;10952;50.836;4.348;2023-11-22T06:15:56;35.00;;;18.63;;
21581;SDS011;10952;50.836;4.348;2023-11-22T06:18:22;36.13;;;18.80;;
21581;SDS011;10952;50.836;4.348;2023-11-22T06:20:54;34.77;;;18.70;;
21581;SDS011;10952;50.836;4.348;2023-11-22T06:23:19;38.17;;;19.43;;
21581;SDS011;10952;50.836;4.348;2023-11-22T06:25:45;34.70;;;17.77;;
21581;SDS011;10952;50.836;4.348;2023-11-22T06:28:11;37.73;;;20.77;;
21581;SDS011;10952;50.836;4.348;2023-11-22T06:30:37;33.50;;;18.50;;
21581;SDS011;10952;50.836;4.348;2023-11-22T06:33:02;35.00;;;19.47;;
21581;SDS011;10952;50.836;4.348;2023-11-22T06:35:28;37.33;;;19.57;;
21581;SDS011;10952;50.836;4.348;2023-11-22T06:37:54;37.97;;;19.50;;
21581;SDS011;10952;50.836;4.348;2023-11-22T06:40:20;37.77;;;21.23;;
21581;SDS011;10952;50.836;4.348;2023-11-22T06:42:48;38.53;;;20.43;;
21581;SDS011;10952;50.836;4.348;2023-11-22T06:45:14;37.10;;;20.50;;
21581;SDS011;10952;50.836;4.348;2023-11-22T06:47:40;38.53;;;19.93;;
21581;SDS011;10952;50.836;4.348;2023-11-22T06:50:07;41.47;;;20.53;;
21581;SDS011;10952;50.836;4.348;2023-11-22T06:52:37;40.40;;;19.83;;
21581;SDS011;10952;50.836;4.348;2023-11-22T06:55:06;38.33;;;18.80;;
21581;SDS011;10952;50.836;4.348;2023-11-22T06:57:33;35.60;;;18.67;;
21581;SDS011;10952;50.836;4.348;2023-11-22T07:00:03;43.50;;;19.57;;
21581;SDS011;10952;50.836;4.348;2023-11-22T07:02:34;40.67;;;20.60;;
21581;SDS011;10952;50.836;4.348;2023-11-22T07:05:00;41.00;;;20.30;;
21581;SDS011;10952;50.836;4.348;2023-11-22T07:07:28;37.60;;;19.70;;
21581;SDS011;10952;50.836;4.348;2023-11-22T07:09:54;40.00;;;21.20;;
21581;SDS011;10952;50.836;4.348;2023-11-22T07:12:24;36.03;;;19.40;;
21581;SDS011;10952;50.836;4.348;2023-11-22T07:14:49;37.70;;;18.77;;
21581;SDS011;10952;50.836;4.348;2023-11-22T07:17:15;36.13;;;19.67;;
21581;SDS011;10952;50.836;4.348;2023-11-22T07:19:43;40.43;;;21.53;;
21581;SDS011;10952;50.836;4.348;2023-11-22T07:22:20;36.80;;;19.07;;
21581;SDS011;10952;50.836;4.348;2023-11-22T07:24:48;39.00;;;20.90;;
21581;SDS011;10952;50.836;4.348;2023-11-22T07:27:17;39.73;;;20.07;;
21581;SDS011;10952;50.836;4.348;2023-11-22T07:29:43;43.60;;;20.40;;
21581;SDS011;10952;50.836;4.348;2023-11-22T07:32:10;43.93;;;20.47;;
21581;SDS011;10952;50.836;4.348;2023-11-22T07:34:37;41.80;;;21.00;;
21581;SDS011;10952;50.836;4.348;2023-11-22T07:37:04;39.37;;;21.13;;
21581;SDS011;10952;50.836;4.348;2023-11-22T07:39:32;41.17;;;20.50;;
21581;SDS011;10952;50.836;4.348;2023-11-22T07:42:00;39.60;;;20.10;;
21581;SDS011;10952;50.836;4.348;2023-11-22T07:44:25;40.33;;;19.73;;
21581;SDS011;10952;50.836;4.348;2023-11-22T07:46:51;43.23;;;22.23;;
21581;SDS011;10952;50.836;4.348;2023-11-22T07:49:19;45.07;;;20.93;;
21581;SDS011;10952;50.836;4.348;2023-11-22T07:51:46;40.90;;;19.90;;
21581;SDS011;10952;50.836;4.348;2023-11-22T07:54:12;40.77;;;21.30;;
21581;SDS011;10952;50.836;4.348;2023-11-22T07:56:43;39.07;;;20.03;;
21581;SDS011;10952;50.836;4.348;2023-11-22T07:59:09;41.37;;;21.97;;
21581;SDS011;10952;50.836;4.348;2023-11-22T08:01:38;45.90;;;21.63;;
21581;SDS011;10952;50.836;4.348;2023-11-22T08:04:08;38.87;;;20.23;;
21581;SDS011;10952;50.836;4.348;2023-11-22T08:06:34;41.30;;;19.80;;
21581;SDS011;10952;50.836;4.348;2023-11-22T08:09:00;40.20;;;20.37;;
21581;SDS011;10952;50.836;4.348;2023-11-22T08:11:26;42.10;;;18.97;;
21581;SDS011;10952;50.836;4.348;2023-11-22T08:13:53;46.50;;;21.70;;
21581;SDS011;10952;50.836;4.348;2023-11-22T08:16:23;49.17;;;22.77;;
21581;SDS011;10952;50.836;4.348;2023-11-22T08:18:48;38.27;;;19.33;;
21581;SDS011;10952;50.836;4.348;2023-11-22T08:21:14;44.60;;;20.87;;
21581;SDS011;10952;50.836;4.348;2023-11-22T08:23:40;44.47;;;20.97;;
21581;SDS011;10952;50.836;4.348;2023-11-22T08:26:06;42.07;;;19.90;;
21581;SDS011;10952;50.836;4.348;2023-11-22T08:28:33;39.57;;;20.93;;
21581;SDS011;10952;50.836;4.348;2023-11-22T08:31:00;42.70;;;19.77;;
21581;SDS011;10952;50.836;4.348;2023-11-22T08:33:26;41.57;;;20.77;;
21581;SDS011;10952;50.836;4.348;2023-11-22T08:35:51;43.83;;;21.50;;
21581;SDS011;10952;50.836;4.348;2023-11-22T08:38:23;48.00;;;22.40;;
21581;SDS011;10952;50.836;4.348;2023-11-22T08:40:51;47.50;;;22.37;;
21581;SDS011;10952;50.836;4.348;2023-11-22T08:43:17;44.70;;;23.43;;
21581;SDS011;10952;50.836;4.348;2023-11-22T08:45:47;50.27;;;21.80;;
21581;SDS011;10952;50.836;4.348;2023-11-22T08:48:14;43.10;;;20.93;;
21581;SDS011;10952;50.836;4.348;2023-11-22T08:50:40;48.30;;;24.43;;
21581;SDS011;10952;50.836;4.348;2023-11-22T08:53:06;48.23;;;23.37;;
21581;SDS011;10952;50.836;4.348;2023-11-22T08:55:33;45.00;;;22.30;;
21581;SDS011;10952;50.836;4.348;2023-11-22T08:57:59;47.80;;;22.57;;
21581;SDS011;10952;50.836;4.348;2023-11-22T09:00:25;44.27;;;22.13;;
21581;SDS011;10952;50.836;4.348;2023-11-22T09:02:53;51.07;;;23.07;;
21581;SDS011;10952;50.836;4.348;2023-11-22T09:05:20;46.43;;;23.07;;
21581;SDS011;10952;50.836;4.348;2023-11-22T09:07:46;45.93;;;23.50;;
21581;SDS011;10952;50.836;4.348;2023-11-22T09:10:13;44.77;;;22.20;;
21581;SDS011;10952;50.836;4.348;2023-11-22T09:12:39;45.53;;;23.40;;
21581;SDS011;10952;50.836;4.348;2023-11-22T09:15:07;50.40;;;24.43;;
21581;SDS011;10952;50.836;4.348;2023-11-22T09:17:37;52.63;;;24.10;;
21581;SDS011;10952;50.836;4.348;2023-11-22T09:20:11;49.80;;;23.17;;
21581;SDS011;10952;50.836;4.348;2023-11-22T09:22:43;50.70;;;22.97;;
21581;SDS011;10952;50.836;4.348;2023-11-22T09:25:15;49.67;;;24.53;;
21581;SDS011;10952;50.836;4.348;2023-11-22T09:27:44;45.30;;;21.67;;
21581;SDS011;10952;50.836;4.348;2023-11-22T09:30:15;42.53;;;22.17;;
21581;SDS011;10952;50.836;4.348;2023-11-22T09:33:00;45.63;;;23.73;;
21581;SDS011;10952;50.836;4.348;2023-11-22T09:35:28;56.27;;;25.40;;
21581;SDS011;10952;50.836;4.348;2023-11-22T09:37:57;45.70;;;23.40;;
21581;SDS011;10952;50.836;4.348;2023-11-22T09:40:24;46.70;;;22.57;;
21581;SDS011;10952;50.836;4.348;2023-11-22T09:42:53;43.63;;;23.37;;
21581;SDS011;10952;50.836;4.348;2023-11-22T09:45:21;40.30;;;21.40;;
21581;SDS011;10952;50.836;4.348;2023-11-22T09:47:47;47.50;;;20.37;;
21581;SDS011;10952;50.836;4.348;2023-11-22T09:50:23;40.50;;;20.33;;
21581;SDS011;10952;50.836;4.348;2023-11-22T09:53:00;38.77;;;20.60;;
21581;SDS011;10952;50.836;4.348;2023-11-22T09:55:28;42.63;;;21.57;;
21581;SDS011;10952;50.836;4.348;2023-11-22T09:57:58;41.53;;;19.83;;
21581;SDS011;10952;50.836;4.348;2023-11-22T10:00:26;46.73;;;20.47;;
21581;SDS011;10952;50.836;4.348;2023-11-22T10:02:55;38.80;;;22.03;;
21581;SDS011;10952;50.836;4.348;2023-11-22T10:05:22;37.03;;;21.10;;
21581;SDS011;10952;50.836;4.348;2023-11-22T10:07:49;36.67;;;20.27;;
21581;SDS011;10952;50.836;4.348;2023-11-22T10:10:15;33.17;;;19.30;;
21581;SDS011;10952;50.836;4.348;2023-11-22T10:12:44;32.17;;;18.17;;
21581;SDS011;10952;50.836;4.348;2023-11-22T10:15:13;34.43;;;18.40;;
21581;SDS011;10952;50.836;4.348;2023-11-22T10:17:39;35.30;;;19.60;;
21581;SDS011;10952;50.836;4.348;2023-11-22T10:20:07;32.13;;;17.93;;
21581;SDS011;10952;50.836;4.348;2023-11-22T10:22:45;38.40;;;18.27;;
21581;SDS011;10952;50.836;4.348;2023-11-22T10:25:13;33.93;;;18.17;;
21581;SDS011;10952;50.836;4.348;2023-11-22T10:27:39;36.30;;;19.07;;
21581;SDS011;10952;50.836;4.348;2023-11-22T10:30:06;35.67;;;19.17;;
21581;SDS011;10952;50.836;4.348;2023-11-22T10:32:36;38.40;;;20.10;;
21581;SDS011;10952;50.836;4.348;2023-11-22T10:35:05;37.47;;;19.00;;
21581;SDS011;10952;50.836;4.348;2023-11-22T10:37:32;35.53;;;18.80;;
21581;SDS011;10952;50.836;4.348;2023-11-22T10:39:59;38.63;;;21.63;;
21581;SDS011;10952;50.836;4.348;2023-11-22T10:42:25;33.23;;;18.93;;
21581;SDS011;10952;50.836;4.348;2023-11-22T10:44:53;31.50;;;17.27;;
21581;SDS011;10952;50.836;4.348;2023-11-22T10:47:22;33.80;;;18.00;;
21581;SDS011;10952;50.836;4.348;2023-11-22T10:49:48;30.67;;;17.80;;
21581;SDS011;10952;50.836;4.348;2023-11-22T10:52:16;31.83;;;17.33;;
21581;SDS011;10952;50.836;4.348;2023-11-22T10:54:49;32.53;;;17.97;;
21581;SDS011;10952;50.836;4.348;2023-11-22T10:57:20;33.73;;;18.10;;
21581;SDS011;10952;50.836;4.348;2023-11-22T10:59:53;35.50;;;19.57;;
21581;SDS011;10952;50.836;4.348;2023-11-22T11:02:21;30.73;;;18.03;;
21581;SDS011;10952;50.836;4.348;2023-11-22T11:04:55;34.70;;;18.33;;
21581;SDS011;10952;50.836;4.348;2023-11-22T11:07:28;34.27;;;17.60;;
21581;SDS011;10952;50.836;4.348;2023-11-22T11:09:57;38.20;;;21.50;;
21581;SDS011;10952;50.836;4.348;2023-11-22T11:12:24;34.33;;;18.33;;
21581;SDS011;10952;50.836;4.348;2023-11-22T11:14:50;30.03;;;16.63;;
21581;SDS011;10952;50.836;4.348;2023-11-22T11:17:16;28.43;;;15.40;;
21581;SDS011;10952;50.836;4.348;2023-11-22T11:19:42;28.57;;;16.80;;
21581;SDS011;10952;50.836;4.348;2023-11-22T11:22:08;29.17;;;15.60;;
21581;SDS011;10952;50.836;4.348;2023-11-22T11:24:38;25.80;;;15.13;;
21581;SDS011;10952;50.836;4.348;2023-11-22T11:27:09;36.13;;;18.30;;
21581;SDS011;10952;50.836;4.348;2023-11-22T11:29:36;27.37;;;15.87;;
21581;SDS011;10952;50.836;4.348;2023-11-22T11:32:13;28.37;;;15.93;;
21581;SDS011;10952;50.836;4.348;2023-11-22T11:34:55;23.77;;;14.60;;
21581;SDS011;10952;50.836;4.348;2023-11-22T11:37:21;29.37;;;15.03;;
21581;SDS011;10952;50.836;4.348;2023-11-22T11:39:47;27.90;;;15.63;;
21581;SDS011;10952;50.836;4.348;2023-11-22T11:42:13;25.53;;;13.77;;
21581;SDS011;10952;50.836;4.348;2023-11-22T11:45:02;28.27;;;16.73;;
21581;SDS011;10952;50.836;4.348;2023-11-22T11:47:31;24.50;;;14.23;;
21581;SDS011;10952;50.836;4.348;2023-11-22T11:49:57;23.47;;;14.60;;
21581;SDS011;10952;50.836;4.348;2023-11-22T11:52:24;27.87;;;15.67;;
21581;SDS011;10952;50.836;4.348;2023-11-22T11:54:50;26.63;;;15.87;;
21581;SDS011;10952;50.836;4.348;2023-11-22T11:57:16;26.50;;;15.73;;
21581;SDS011;10952;50.836;4.348;2023-11-22T11:59:42;29.23;;;16.63;;
21581;SDS011;10952;50.836;4.348;2023-11-22T12:02:08;25.53;;;14.50;;
21581;SDS011;10952;50.836;4.348;2023-11-22T12:04:33;23.40;;;15.03;;
21581;SDS011;10952;50.836;4.348;2023-11-22T12:06:59;27.00;;;15.17;;
21581;SDS011;10952;50.836;4.348;2023-11-22T12:09:25;29.13;;;16.30;;
21581;SDS011;10952;50.836;4.348;2023-11-22T12:11:52;25.33;;;14.60;;
21581;SDS011;10952;50.836;4.348;2023-11-22T12:14:22;28.40;;;16.53;;
21581;SDS011;10952;50.836;4.348;2023-11-22T12:16:51;26.73;;;15.23;;
21581;SDS011;10952;50.836;4.348;2023-11-22T12:19:22;26.27;;;15.33;;
21581;SDS011;10952;50.836;4.348;2023-11-22T12:21:49;29.00;;;15.80;;
21581;SDS011;10952;50.836;4.348;2023-11-22T12:24:15;29.53;;;16.90;;
21581;SDS011;10952;50.836;4.348;2023-11-22T12:26:44;30.23;;;17.03;;
21581;SDS011;10952;50.836;4.348;2023-11-22T12:29:13;33.97;;;18.73;;
21581;SDS011;10952;50.836;4.348;2023-11-22T12:31:48;29.47;;;16.33;;
21581;SDS011;10952;50.836;4.348;2023-11-22T12:34:16;32.07;;;15.97;;
21581;SDS011;10952;50.836;4.348;2023-11-22T12:36:42;27.73;;;16.57;;
21581;SDS011;10952;50.836;4.348;2023-11-22T12:39:10;28.03;;;13.00;;
21581;SDS011;10952;50.836;4.348;2023-11-22T12:41:41;30.70;;;15.00;;
21581;SDS011;10952;50.836;4.348;2023-11-22T12:44:11;28.17;;;14.63;;
21581;SDS011;10952;50.836;4.348;2023-11-22T12:46:50;31.07;;;15.30;;
21581;SDS011;10952;50.836;4.348;2023-11-22T12:49:24;24.87;;;13.73;;
21581;SDS011;10952;50.836;4.348;2023-11-22T12:51:54;27.43;;;14.70;;
21581;SDS011;10952;50.836;4.348;2023-11-22T12:54:24;26.27;;;14.70;;
21581;SDS011;10952;50.836;4.348;2023-11-22T12:56:50;25.07;;;13.23;;
21581;SDS011;10952;50.836;4.348;2023-11-22T12:59:19;30.30;;;14.20;;
21581;SDS011;10952;50.836;4.348;2023-11-22T13:01:44;24.13;;;14.07;;
21581;SDS011;10952;50.836;4.348;2023-11-22T13:04:10;27.40;;;15.13;;
21581;SDS011;10952;50.836;4.348;2023-11-22T13:06:39;24.30;;;12.83;;
21581;SDS011;10952;50.836;4.348;2023-11-22T13:09:05;25.00;;;13.23;;
21581;SDS011;10952;50.836;4.348;2023-11-22T13:11:31;22.93;;;13.70;;
21581;SDS011;10952;50.836;4.348;2023-11-22T13:13:57;32.37;;;15.67;;
21581;SDS011;10952;50.836;4.348;2023-11-22T13:16:23;25.50;;;15.03;;
21581;SDS011;10952;50.836;4.348;2023-11-22T13:18:49;31.97;;;15.37;;
21581;SDS011;10952;50.836;4.348;2023-11-22T13:21:15;25.87;;;14.80;;
21581;SDS011;10952;50.836;4.348;2023-11-22T13:23:42;24.13;;;14.17;;
21581;SDS011;10952;50.836;4.348;2023-11-22T13:26:07;30.57;;;14.43;;
21581;SDS011;10952;50.836;4.348;2023-11-22T13:28:39;25.70;;;14.63;;
21581;SDS011;10952;50.836;4.348;2023-11-22T13:31:06;23.63;;;14.07;;
21581;SDS011;10952;50.836;4.348;2023-11-22T13:33:33;30.27;;;15.60;;
21581;SDS011;10952;50.836;4.348;2023-11-22T13:35:58;27.40;;;16.47;;
21581;SDS011;10952;50.836;4.348;2023-11-22T13:38:24;26.17;;;13.60;;
21581;SDS011;10952;50.836;4.348;2023-11-22T13:40:50;25.50;;;14.33;;
21581;SDS011;10952;50.836;4.348;2023-11-22T13:43:16;26.57;;;14.10;;
21581;SDS011;10952;50.836;4.348;2023-11-22T13:45:43;26.57;;;14.37;;
21581;SDS011;10952;50.836;4.348;2023-11-22T13:48:10;28.97;;;15.03;;
21581;SDS011;10952;50.836;4.348;2023-11-22T13:50:36;33.80;;;18.00;;
21581;SDS011;10952;50.836;4.348;2023-11-22T13:53:02;29.43;;;15.53;;
21581;SDS011;10952;50.836;4.348;2023-11-22T13:55:29;27.67;;;15.73;;
21581;SDS011;10952;50.836;4.348;2023-11-22T13:57:56;28.67;;;15.27;;
21581;SDS011;10952;50.836;4.348;2023-11-22T14:00:24;26.80;;;16.40;;
21581;SDS011;10952;50.836;4.348;2023-11-22T14:02:53;27.27;;;15.37;;
21581;SDS011;10952;50.836;4.348;2023-11-22T14:05:23;28.03;;;15.10;;
21581;SDS011;10952;50.836;4.348;2023-11-22T14:07:49;27.87;;;15.27;;
21581;SDS011;10952;50.836;4.348;2023-11-22T14:10:16;28.37;;;15.77;;
21581;SDS011;10952;50.836;4.348;2023-11-22T14:12:43;30.50;;;17.13;;
21581;SDS011;10952;50.836;4.348;2023-11-22T14:15:09;26.97;;;15.70;;
21581;SDS011;10952;50.836;4.348;2023-11-22T14:17:36;28.70;;;15.90;;
21581;SDS011;10952;50.836;4.348;2023-11-22T14:20:04;26.00;;;15.70;;